首页
METAR-TAF:

METAR-TAF

机场 :

阿伦敦, 宾夕法尼亚州, 美国

纬度: 40-39-03N, 经度: 075-26-57W, 海拔: 120米

当前天气观测

该预报发布于1小时和13分钟前的15:51 UTC
静风
温度 3°C
湿度 70%
气压 1028 hPa
能見度: 16.1公里
阴天层高于1400英尺

METAR: KABE 131551Z 00000KT 10SM OVC014 03/M02 A3035 RMK AO2 SLP282 T00281022

时间: 12:04 (17:04 UTC)

预报

该预报发布于3小时和46分钟前的13:18 UTC
预报有效从13日的 13点(UTC)到 14日的 12点(UTC)
风速5节,风向东转东北
能見度: 10公里
阴天层高于2500英尺
附近有阵雨
从 13日的 1600点(UTC)
风速5节,风向
能見度: 10公里
阴天层高于1500英尺
附近有阵雨
从 13日的 1900点(UTC)
风速5节,风向
能見度: 4.8公里
阴天层高于800英尺
小雨, 轻雾
从 14日的 0100点(UTC)
风速5节,风向东转东北
能見度: 3.2公里
阴天层高于300英尺
雨, 轻雾
从 14日的 0600点(UTC)
风速5节,风向东北
能見度: 3.2公里
阴天层高于300英尺
大雨, 轻雾

TAF: KABE 131318Z 1313/1412 06005KT P6SM VCSH OVC025 FM131600 08005KT P6SM VCSH OVC015 FM131900 08005KT 3SM -RA BR OVC008 FM140100 07005KT 2SM RA BR OVC003 FM140600 05005KT 2SM +RA BR OVC003

超过4000个机场的气象观测和天气预报(METAR&TAF报告)。

可查询的气象台以黄色和红色小点在地图上表示。

将鼠标移到小点上方,可查看气象台名称。

然后点击查看天气观测和预报。

如需切换地图:点击带黑十字的绿色按钮放大地图;点击带横线的绿色按钮缩小地图;或者点击绿色箭头查看邻近地区的地图。


METAR-TAF: